Home > Products > Valid Products > TAF

000
FTUS44 KMEG 191129
TAFMEM
TAF
KMEM 191129Z 1912/2012 03006KT P6SM BKN025 OVC035
      TEMPO 1918/1921 SCT025
     FM192100 02007KT P6SM VCSH SCT015 OVC025
     FM192300 02005KT 6SM -RA BR BKN012 OVC025
     FM200400 03005KT P6SM SCT009 OVC012=



000
FTUS44 KMEG 191129
TAFTUP
TAF
KTUP 191129Z 1912/2012 03004KT P6SM SCT025 OVC035
      TEMPO 1916/1920 BKN025
     FM192000 04005KT P6SM VCSH SCT015 OVC025
     FM192200 04005KT 5SM -RA BR SCT009 OVC015
      TEMPO 2001/2005 3SM RA BR BKN009
     FM200500 02005KT 5SM BR VCSH BKN009 OVC015=



000
FTUS44 KMEG 191129
TAFMKL
TAF
KMKL 191129Z 1912/2012 04005KT P6SM SCT025 OVC035
     FM192200 03003KT P6SM VCSH SCT015 OVC025
      TEMPO 2000/2004 5SM -RA BR SCT009 OVC012
     FM200400 VRB03KT 3SM BR VCSH BKN009 OVC012=



000
FTUS44 KMEG 191129
TAFJBR
TAF
KJBR 191129Z 1912/2012 06008KT P6SM SCT008 OVC035
      TEMPO 1912/1914 BKN008
     FM191500 06008KT P6SM SCT025 OVC040
     FM192200 05005KT P6SM VCSH BKN025 OVC080
     FM200400 02005KT P6SM OVC020=



000
FTUS44 KMEG 191002 AAC
TAFMEM
TAF AMD
KMEM 191002Z 1910/2006 03006KT P6SM SCT025 OVC035
      TEMPO 1910/1914 BKN025
     FM192100 02007KT P6SM VCSH SCT015 OVC025
      TEMPO 2000/2004 -RA BKN015=



000
FTUS44 KMEG 191002 AAC
TAFMEM
TAF AMD
KMEM 191002Z 1910/2006 03006KT P6SM SCT025 OVC035
      TEMPO 1910/1914 BKN025
     FM192100 02007KT P6SM VCSH SCT015 OVC025
      TEMPO 2000/2004 -RA BKN015=



000
FTUS44 KMEG 190908 AAB
TAFMEM
TAF AMD
KMEM 190908Z 1909/2006 03006KT P6SM FEW025 OVC040
     FM192100 02007KT P6SM VCSH SCT015 OVC025
      TEMPO 2000/2004 -RA BKN015=



000
FTUS44 KMEG 190808 AAA
TAFJBR
TAF AMD
KJBR 190808Z 1908/2006 04006KT P6SM OVC035
      TEMPO 1910/1914 OVC030
     FM192100 06005KT P6SM OVC050=



000
FTUS44 KMEG 190806 AAA
TAFMKL
TAF AMD
KMKL 190806Z 1908/2006 00000KT P6SM OVC035
     FM191400 06005KT P6SM OVC040
     FM200000 03003KT P6SM VCSH OVC050=



000
FTUS44 KMEG 190804 AAA
TAFTUP
TAF AMD
KTUP 190804Z 1908/2006 03004KT P6SM OVC035
      TEMPO 1909/1913 6SM BR OVC030
     FM191500 04003KT P6SM OVC050
     FM192100 04005KT P6SM VCSH OVC050
     FM192200 05005KT P6SM -RA OVC045=



000
FTUS44 KMEG 190613 AAA
TAFMEM
TAF AMD
KMEM 190613Z 1906/2006 06004KT P6SM SCT022 OVC040
     FM191000 05005KT 5SM BR BKN015 OVC022
     FM191200 05005KT P6SM OVC010
     FM191500 06006KT P6SM OVC015
     FM192100 02007KT P6SM VCSH OVC025
      TEMPO 2000/2004 -RA=



000
FTUS44 KMEG 190520
TAFTUP
TAF
KTUP 190520Z 1906/2006 03004KT P6SM OVC030
      TEMPO 1908/1912 5SM BR
     FM191500 04003KT P6SM OVC050
     FM192100 04005KT P6SM VCSH OVC050
     FM192200 05005KT P6SM -RA OVC045=



000
FTUS44 KMEG 190520
TAFMEM
TAF
KMEM 190520Z 1906/2006 06004KT P6SM BKN022 OVC040
     FM190800 05005KT 5SM BR OVC015
     FM191200 05005KT P6SM OVC010
     FM191500 06006KT P6SM OVC015
     FM192100 02007KT P6SM VCSH OVC025
      TEMPO 2000/2004 -RA=



000
FTUS44 KMEG 190520
TAFMKL
TAF
KMKL 190520Z 1906/2006 00000KT P6SM OVC040
     FM190800 03003KT 5SM BR OVC015
     FM191400 06005KT P6SM OVC025
     FM200000 03003KT P6SM VCSH OVC050=



000
FTUS44 KMEG 190520
TAFJBR
TAF
KJBR 190520Z 1906/2006 03006KT P6SM OVC040
     FM190900 05004KT 4SM BR OVC007
     FM191800 05006KT P6SM OVC015
     FM192100 06005KT P6SM OVC050=



000
FTUS44 KMEG 190258 AAA
TAFMEM
TAF AMD
KMEM 190258Z 1903/1924 04004KT P6SM OVC021
     FM190600 05005KT 4SM BR OVC010
     FM190800 05005KT 4SM BR OVC008
     FM191500 06006KT P6SM OVC015
     FM192100 02007KT P6SM OVC025=



000
FTUS44 KMEG 182320
TAFJBR
TAF
KJBR 182320Z 1900/1924 07006KT P6SM OVC027
     FM190600 05005KT 4SM BR OVC007
     FM190900 05004KT 2SM BR OVC005
     FM191500 05008KT 4SM BR OVC007
     FM191800 05006KT P6SM OVC015=



000
FTUS44 KMEG 182320
TAFTUP
TAF
KTUP 182320Z 1900/1924 00000KT P6SM OVC030
      TEMPO 1908/1912 5SM BR
     FM191500 04003KT P6SM OVC050
     FM192100 04005KT P6SM VCSH OVC050=



000
FTUS44 KMEG 182320
TAFMKL
TAF
KMKL 182320Z 1900/1924 04003KT P6SM OVC045
     FM190600 05003KT 4SM BR OVC010
     FM190800 03003KT 4SM BR OVC008
     FM191500 06005KT P6SM OVC030
     FM192100 36006KT P6SM OVC025=



000
FTUS44 KMEG 182320
TAFMEM
TAF
KMEM 182320Z 1900/1924 01003KT P6SM OVC019
     FM190600 05005KT 4SM BR OVC010
     FM190800 05005KT 4SM BR OVC008
     FM191500 06006KT P6SM OVC015
     FM192100 02007KT P6SM OVC025=



000
FTUS44 KMEG 182051 AAA
TAFMEM
TAF AMD
KMEM 182051Z 1821/1918 03004KT P6SM OVC025
     FM190600 05005KT 5SM BR OVC010
     FM191500 06006KT P6SM OVC025=



000
FTUS44 KMEG 182032 AAA
TAFJBR
TAF AMD
KJBR 182032Z 1821/1918 06005KT P6SM SCT015 OVC030
     FM190600 05005KT 5SM BR OVC007
     FM191500 05008KT 2SM BR OVC012=



000
FTUS44 KMEG 181722
TAFMEM
TAF
KMEM 181722Z 1818/1918 11005KT P6SM SCT015 OVC030
     FM190000 03004KT P6SM OVC025
     FM190600 05005KT 5SM BR OVC010
     FM191500 06006KT P6SM OVC025=



000
FTUS44 KMEG 181722
TAFTUP
TAF
KTUP 181722Z 1818/1918 VRB02KT P6SM OVC030
     FM190000 05004KT P6SM SCT015 OVC100
      TEMPO 1908/1912 5SM BR=



000
FTUS44 KMEG 181722
TAFMKL
TAF
KMKL 181722Z 1818/1918 09004KT P6SM OVC040
     FM190600 05003KT 5SM BR OVC010
     FM191500 06005KT P6SM OVC030=



000
FTUS44 KMEG 181722
TAFJBR
TAF
KJBR 181722Z 1818/1918 06005KT P6SM OVC010
     FM190600 05005KT 5SM BR OVC007
     FM191500 05008KT 2SM BR OVC012=



000
FTUS44 KMEG 181505 AAA
TAFMEM
TAF AMD
KMEM 181505Z 1815/1912 09005KT P6SM SCT015 OVC040
     FM181700 11003KT P6SM SCT015 OVC025
     FM190000 03004KT P6SM OVC025
     FM190600 05005KT 5SM BR OVC015=



000
FTUS44 KMEG 181411 AAA
TAFJBR
TAF AMD
KJBR 181411Z 1814/1912 07005KT 5SM BR SCT006 OVC040
     FM181600 06005KT P6SM OVC015
     FM190600 05005KT 5SM BR OVC009=



000
FTUS44 KMEG 181305 AAA
TAFMKL
TAF AMD
KMKL 181305Z 1813/1912 07003KT 4SM -RA BR SCT006 OVC040
      TEMPO 1813/1816 BKN006
     FM181600 VRB03KT P6SM OVC025
     FM190600 05003KT 5SM BR OVC015=



000
FTUS44 KMEG 181305 AAA
TAFMKL
TAF AMD
KMKL 181305Z 1813/1912 07003KT 4SM -RA BR SCT006 OVC040
      TEMPO 1813/1816 BKN006
     FM181600 VRB03KT P6SM OVC025
     FM190600 05003KT 5SM BR OVC015=



000
FTUS44 KMEG 181130
TAFMEM
TAF
KMEM 181130Z 1812/1912 11005KT 5SM -RA BR SCT015 OVC040
     FM181500 11003KT P6SM OVC015
     FM190000 03004KT P6SM OVC025
     FM190600 05005KT 5SM BR OVC015=



000
FTUS44 KMEG 181130
TAFJBR
TAF
KJBR 181130Z 1812/1912 09005KT 6SM BR SCT006 OVC025
      TEMPO 1812/1816 BKN006
     FM181600 06005KT P6SM OVC015
     FM190600 05005KT 5SM BR OVC009=



000
FTUS44 KMEG 181130
TAFMKL
TAF
KMKL 181130Z 1812/1912 08003KT 6SM -RA BR SCT025 OVC040
     FM181600 VRB03KT P6SM OVC025
     FM190600 05003KT 5SM BR OVC015=



000
FTUS44 KMEG 181130
TAFTUP
TAF
KTUP 181130Z 1812/1912 09005KT 6SM -RA BR SCT025 OVC050
     FM181700 VRB02KT P6SM OVC040
     FM190000 05004KT P6SM SCT015 OVC100
      TEMPO 1908/1912 5SM BR=



000
FTUS44 KMEG 180900 AAA
TAFMEM
TAF AMD
KMEM 180900Z 1809/1906 12005KT 5SM -RA SCT025 OVC070
     FM181000 13003KT 6SM -RA BR SCT009 OVC025
     FM181400 13004KT P6SM VCSH OVC015
     FM181800 13003KT P6SM OVC015=



000
FTUS44 KMEG 180900 AAA
TAFMEM
TAF AMD
KMEM 180900Z 1809/1906 12005KT 5SM -RA SCT025 OVC070
     FM181000 13003KT 6SM -RA BR SCT009 OVC025
     FM181400 13004KT P6SM VCSH OVC015
     FM181800 13003KT P6SM OVC015=



000
FTUS44 KMEG 180551 AAA
TAFJBR
TAF AMD
KJBR 180551Z 1806/1906 33003KT 5SM BR VCSH OVC060
      TEMPO 1806/1807 4SM RA BR SCT020 BKN040
     FM180700 05005KT 4SM -RA BR SCT009 OVC020
     FM181100 10003KT 6SM BR BKN007 OVC015
     FM181800 09003KT P6SM OVC015=



000
FTUS44 KMEG 180520
TAFMKL
TAF
KMKL 180520Z 1806/1906 04004KT P6SM -RA VCSH BKN070 OVC100
      TEMPO 1807/1811 6SM -RA BR SCT025 BKN040
     FM181100 03003KT 6SM -RA BR SCT009 OVC025
     FM181400 VRB03KT P6SM VCSH OVC025
     FM190000 03003KT P6SM OVC015=



000
FTUS44 KMEG 180520
TAFTUP
TAF
KTUP 180520Z 1806/1906 06006KT P6SM VCSH OVC090
     FM180900 04003KT P6SM VCSH SCT025 OVC050
     FM181800 16002KT P6SM OVC050
     FM190000 05002KT P6SM OVC100=



000
FTUS44 KMEG 180520
TAFJBR
TAF
KJBR 180520Z 1806/1906 33003KT 5SM RA BR VCSH OVC060
      TEMPO 1806/1807 4SM -RA BR SCT020 BKN040
     FM180700 05005KT 4SM -RA BR SCT009 OVC020
     FM181100 10003KT 6SM BR BKN007 OVC015
     FM181800 09003KT P6SM OVC015=



000
FTUS44 KMEG 180520
TAFMEM
TAF
KMEM 180520Z 1806/1906 32006KT P6SM VCSH OVC090
      TEMPO 1806/1810 6SM -RA BR SCT025 BKN040
     FM181000 13003KT 6SM -RA BR SCT009 OVC025
     FM181400 13004KT P6SM VCSH OVC015
     FM181800 13003KT P6SM OVC015=



000
FTUS44 KMEG 180254 AAA
TAFMEM
TAF AMD
KMEM 180254Z 1803/1824 05009KT P6SM VCSH OVC100
      TEMPO 1803/1807 6SM -RA BR SCT025 BKN040
     FM180800 04007KT 6SM -RA BR SCT009 OVC025
     FM181400 13004KT P6SM VCSH OVC025
     FM181600 13003KT P6SM OVC015=



000
FTUS44 KMEG 172320
TAFTUP
TAF
KTUP 172320Z 1800/1824 35003KT P6SM SKC
     FM180600 02004KT P6SM VCSH SCT050 OVC090
     FM180900 04003KT P6SM VCSH SCT025 OVC050
     FM181800 16002KT P6SM OVC050=



000
FTUS44 KMEG 172320
TAFMEM
TAF
KMEM 172320Z 1800/1824 34006KT P6SM FEW017 SCT050 OVC180
     FM180200 01005KT P6SM VCSH SCT040 OVC090
      TEMPO 1803/1807 6SM -RA BR SCT025 BKN040
     FM180800 04007KT 6SM -RA BR SCT009 OVC025
     FM181400 13004KT P6SM VCSH OVC025
     FM181600 13003KT P6SM OVC015=



000
FTUS44 KMEG 172320
TAFJBR
TAF
KJBR 172320Z 1800/1824 09005KT P6SM BKN110
     FM180000 06005KT P6SM VCSH OVC050
      TEMPO 1803/1807 6SM -RA BR SCT020 BKN040
     FM180700 05005KT 4SM -RA BR SCT009 OVC020
     FM181100 10003KT P6SM BKN007 OVC015=



000
FTUS44 KMEG 172320
TAFMKL
TAF
KMKL 172320Z 1800/1824 33006KT P6SM OVC250
     FM180600 03003KT P6SM VCSH SCT040 OVC090
      TEMPO 1807/1811 6SM -RA BR SCT025 BKN040
     FM181100 03003KT 6SM -RA BR SCT009 OVC025
     FM181400 VRB03KT P6SM VCSH OVC025=



000
FTUS44 KMEG 172101 AAA
TAFMEM
TAF AMD
KMEM 172101Z 1721/1818 33004KT P6SM BKN150 OVC250
     FM180300 01005KT P6SM VCSH SCT040 OVC090
      TEMPO 1804/1808 6SM -RA BR SCT025 BKN040
     FM180800 04007KT 6SM -RA BR SCT009 OVC025
     FM181400 13004KT P6SM VCSH OVC025=



000
FTUS44 KMEG 171857 AAA
TAFJBR
TAF AMD
KJBR 171857Z 1719/1818 07004KT P6SM SCT015 BKN150 OVC250
     FM180200 06005KT P6SM VCSH OVC090
      TEMPO 1803/1807 6SM -RA BR SCT020 BKN040
     FM180700 05005KT 6SM -RA BR SCT009 OVC020
     FM181100 10003KT P6SM BKN007 OVC015=



000
FTUS44 KMEG 171857 AAA
TAFMKL
TAF AMD
KMKL 171857Z 1719/1818 36003KT P6SM BKN150 OVC250
     FM180600 03003KT P6SM VCSH SCT040 OVC090
      TEMPO 1807/1811 6SM -RA BR SCT025 BKN040
     FM181100 03003KT 6SM -RA BR SCT009 OVC025
     FM181400 VRB03KT P6SM VCSH OVC025=



000
FTUS44 KMEG 171740
TAFMEM
TAF
KMEM 171740Z 1718/1818 02005KT P6SM BKN150 OVC250
     FM180300 01005KT P6SM VCSH SCT040 OVC090
      TEMPO 1804/1808 6SM -RA BR SCT025 BKN040
     FM180800 04007KT 6SM -RA BR SCT009 OVC025
     FM181400 13004KT P6SM VCSH OVC025=



000
FTUS44 KMEG 171740
TAFJBR
TAF
KJBR 171740Z 1718/1818 07008KT P6SM SCT016 BKN150 OVC250
      TEMPO 1718/1721 BKN016
     FM180200 06005KT P6SM VCSH OVC090
      TEMPO 1803/1807 6SM -RA BR SCT020 BKN040
     FM180700 05005KT 6SM -RA BR SCT009 OVC020
     FM181100 10003KT P6SM BKN007 OVC015=



000
FTUS44 KMEG 171740
TAFMKL
TAF
KMKL 171740Z 1718/1818 36004KT P6SM OVC017
     FM172100 36005KT P6SM BKN150 OVC250
     FM180600 03003KT P6SM VCSH SCT040 OVC090
      TEMPO 1807/1811 6SM -RA BR SCT025 BKN040
     FM181100 03003KT 6SM -RA BR SCT009 OVC025
     FM181400 VRB03KT P6SM VCSH OVC025=



000
FTUS44 KMEG 171740
TAFTUP
TAF
KTUP 171740Z 1718/1818 01005KT P6SM FEW150 BKN250
     FM180000 02004KT P6SM BKN150 OVC250
     FM180600 02004KT P6SM VCSH SCT050 OVC090
     FM180900 04003KT P6SM VCSH SCT025 OVC050=



000
FTUS44 KMEG 171534 AAB
TAFMKL
TAF AMD
KMKL 171534Z 1716/1812 36005KT P6SM BKN015
     FM171700 36005KT P6SM FEW150 BKN250
     FM172000 36005KT P6SM BKN150 OVC250
     FM180500 03003KT P6SM VCSH SCT040 OVC090
      TEMPO 1806/1810 6SM -RA BR SCT025 BKN040
     FM181000 03003KT 6SM -RA BR SCT009 OVC025=



000
FTUS44 KMEG 171507 AAA
TAFMEM
TAF AMD
KMEM 171507Z 1715/1812 02006KT P6SM FEW150 BKN250
     FM171800 02005KT P6SM BKN150 OVC250
     FM180300 01005KT P6SM VCSH SCT040 OVC090
      TEMPO 1804/1808 6SM -RA BR SCT025 BKN040
     FM180800 04007KT 6SM -RA BR SCT009 OVC025=



000
FTUS44 KMEG 171357 AAA
TAFMKL
TAF AMD
KMKL 171357Z 1714/1812 36006KT P6SM BKN015
     FM171600 36005KT P6SM FEW150 BKN250
     FM172000 36005KT P6SM BKN150 OVC250
     FM180500 03003KT P6SM VCSH SCT040 OVC090
      TEMPO 1806/1810 6SM -RA BR SCT025 BKN040
     FM181000 03003KT 6SM -RA BR SCT009 OVC025=



000
FTUS44 KMEG 171135
TAFTUP
TAF
KTUP 171135Z 1712/1812 01005KT P6SM FEW150 BKN250
     FM180000 02004KT P6SM BKN150 OVC250
     FM180600 02004KT P6SM VCSH SCT050 OVC090
     FM180900 04006KT P6SM VCSH SCT025 OVC050=



000
FTUS44 KMEG 171135
TAFMEM
TAF
KMEM 171135Z 1712/1812 03005KT P6SM FEW150 BKN250
     FM171800 02005KT P6SM BKN150 OVC250
     FM180300 01005KT P6SM VCSH SCT040 OVC090
      TEMPO 1804/1808 6SM -RA BR SCT025 BKN040
     FM180800 04007KT 6SM -RA BR SCT009 OVC025=



000
FTUS44 KMEG 171135
TAFJBR
TAF
KJBR 171135Z 1712/1812 02005KT P6SM FEW150 BKN250
     FM171800 06005KT P6SM BKN150 OVC250
     FM180200 06005KT P6SM VCSH OVC090
      TEMPO 1803/1807 6SM -RA BR SCT020 BKN040
     FM180700 05005KT 6SM -RA BR SCT009 OVC020=



000
FTUS44 KMEG 171135
TAFMKL
TAF
KMKL 171135Z 1712/1812 36005KT P6SM BKN020
     FM171400 36005KT P6SM FEW150 BKN250
     FM172000 36005KT P6SM BKN150 OVC250
     FM180500 03003KT P6SM VCSH SCT040 OVC090
      TEMPO 1806/1810 6SM -RA BR SCT025 BKN040
     FM181000 03003KT 6SM -RA BR SCT009 OVC025=



000
FTUS44 KMEG 171012 AAA
TAFMKL
TAF AMD
KMKL 171012Z 1710/1806 34006KT P6SM BKN025
     FM171200 36004KT P6SM FEW150 BKN250
     FM172000 01004KT P6SM BKN150 OVC250
     FM180000 36004KT P6SM VCSH SCT020 OVC090
      TEMPO 1803/1806 6SM -RA BR FEW009 OVC020=



000
FTUS44 KMEG 171012 AAA
TAFMKL
TAF AMD
KMKL 171012Z 1710/1806 34006KT P6SM BKN025
     FM171200 36004KT P6SM FEW150 BKN250
     FM172000 01004KT P6SM BKN150 OVC250
     FM180000 36004KT P6SM VCSH SCT020 OVC090
      TEMPO 1803/1806 6SM -RA BR FEW009 OVC020=



000
FTUS44 KMEG 170859 AAA
TAFMEM
TAF AMD
KMEM 170859Z 1709/1806 36005KT P6SM FEW150 BKN250
     FM171800 02005KT P6SM BKN150 OVC250
     FM172300 01005KT P6SM VCSH SCT020 OVC090
      TEMPO 1802/1806 6SM -RA BR FEW009 OVC020=



000
FTUS44 KMEG 170859 AAA
TAFMEM
TAF AMD
KMEM 170859Z 1709/1806 36005KT P6SM FEW150 BKN250
     FM171800 02005KT P6SM BKN150 OVC250
     FM172300 01005KT P6SM VCSH SCT020 OVC090
      TEMPO 1802/1806 6SM -RA BR FEW009 OVC020=



000
FTUS44 KMEG 170529
TAFMKL
TAF
KMKL 170529Z 1706/1806 32006KT P6SM BKN030
     FM171000 36004KT P6SM FEW150 BKN250
     FM172000 01004KT P6SM BKN150 OVC250
     FM180000 36004KT P6SM VCSH SCT020 OVC090
      TEMPO 1803/1806 6SM -RA BR FEW009 OVC020=



000
FTUS44 KMEG 170529
TAFTUP
TAF
KTUP 170529Z 1706/1806 01005KT P6SM BKN025
     FM170700 01005KT P6SM FEW025 SCT250
     FM171300 02005KT P6SM BKN250
     FM172200 03005KT P6SM SCT090 OVC150
     FM180300 02005KT P6SM VCSH SCT020 OVC090=



000
FTUS44 KMEG 170529
TAFJBR
TAF
KJBR 170529Z 1706/1806 35005KT P6SM FEW030 SCT250
     FM170900 36005KT P6SM FEW150 BKN250
     FM171700 02005KT P6SM BKN150 OVC250
     FM172200 06005KT P6SM VCSH BKN090 OVC150
      TEMPO 1801/1804 6SM -RA BR SCT020 OVC060
     FM180400 05005KT 5SM RA BR SCT009 OVC020=



000
FTUS44 KMEG 170529
TAFMEM
TAF
KMEM 170529Z 1706/1806 35007KT P6SM SCT250
     FM170900 36005KT P6SM FEW150 BKN250
     FM171800 02005KT P6SM BKN150 OVC250
     FM172300 01005KT P6SM VCSH SCT020 OVC090
      TEMPO 1802/1806 6SM -RA BR FEW009 OVC020=



000
FTUS44 KMEG 170258 AAA
TAFMEM
TAF AMD
KMEM 170258Z 1703/1724 33007KT P6SM FEW040 SCT250
     FM170900 35005KT P6SM BKN250
     FM171700 01005KT P6SM BKN150
     FM172300 03005KT P6SM VCSH BKN090 OVC150=



000
FTUS44 KMEG 170242 AAA
TAFMKL
TAF AMD
KMKL 170242Z 1703/1724 29006KT P6SM OVC035
     FM170700 33004KT P6SM SCT035 SCT250
     FM171200 36004KT P6SM BKN250
     FM171900 01004KT P6SM BKN150=



000
FTUS44 KMEG 162321
TAFMKL
TAF
KMKL 162321Z 1700/1724 31006KT P6SM OVC020
     FM170700 34004KT P6SM SCT020 SCT250
     FM171200 36004KT P6SM BKN250
     FM171900 01004KT P6SM BKN150=



000
FTUS44 KMEG 162321
TAFMEM
TAF
KMEM 162321Z 1700/1724 30008KT P6SM BKN030
     FM170100 32005KT P6SM SCT030 SCT250
     FM171000 35005KT P6SM BKN250
     FM171700 01005KT P6SM BKN150
     FM172300 03005KT P6SM VCSH BKN090 OVC150=



000
FTUS44 KMEG 162321
TAFJBR
TAF
KJBR 162321Z 1700/1724 31007KT P6SM SCT025 SCT250
     FM170900 01005KT P6SM BKN250
     FM171600 03005KT P6SM BKN150
     FM172200 04005KT P6SM VCSH BKN090 OVC150=



000
FTUS44 KMEG 162321
TAFTUP
TAF
KTUP 162321Z 1700/1724 35003KT P6SM SCT035 SCT250
      TEMPO 1701/1705 BKN035
     FM171100 01005KT P6SM BKN250
     FM172000 04005KT P6SM BKN150=



000
FTUS44 KMEG 162136 AAB
TAFMEM
TAF AMD
KMEM 162136Z 1622/1718 30010KT P6SM SCT030
      TEMPO 1622/1624 BKN030
     FM170200 33006KT P6SM SCT030
     FM171100 35004KT P6SM BKN250
      TEMPO 1711/1713 6SM BR=



000
FTUS44 KMEG 162052 AAA
TAFMEM
TAF AMD
KMEM 162052Z 1621/1718 31010KT P6SM SCT025
     FM170200 33006KT P6SM SCT030
     FM171100 35004KT P6SM BKN250
      TEMPO 1711/1713 6SM BR=



000
FTUS44 KMEG 162003 AAA
TAFJBR
TAF AMD
KJBR 162003Z 1620/1718 31012KT P6SM SCT025
     FM170200 33005KT P6SM SCT025
     FM171200 01005KT P6SM BKN250=



000
FTUS44 KMEG 161737
TAFMEM
TAF
KMEM 161737Z 1618/1718 30012G16KT P6SM SCT035
      TEMPO 1618/1622 BKN028
     FM162300 30009KT P6SM SCT030
     FM170100 32006KT P6SM SCT030
     FM171100 35004KT P6SM BKN250
      TEMPO 1711/1714 6SM BR=



000
FTUS44 KMEG 161737
TAFMKL
TAF
KMKL 161737Z 1618/1718 29010KT P6SM OVC025
     FM170200 32006KT P6SM OVC025
     FM170800 35004KT 6SM BR SCT025
     FM171300 01005KT P6SM BKN250=



000
FTUS44 KMEG 161737
TAFJBR
TAF
KJBR 161737Z 1618/1718 30012G18KT P6SM BKN025
     FM162100 30012KT P6SM SCT025
      TEMPO 1621/1623 BKN025
     FM170200 33005KT P6SM SCT025
     FM171200 01005KT P6SM BKN250=



000
FTUS44 KMEG 161737
TAFTUP
TAF
KTUP 161737Z 1618/1718 30007KT P6SM SCT035
      TEMPO 1622/1701 BKN035
     FM170200 32004KT P6SM SCT025
     FM170800 01004KT P6SM SCT250=



000
FTUS44 KMEG 161503 CCA
TAFMEM
TAF COR
KMEM 161503Z 1615/1712 31012G18KT P6SM SCT035
      TEMPO 1616/1619 BKN035
     FM161900 30010KT P6SM OVC035
     FM170000 30006KT P6SM BKN035
     FM170200 31005KT P6SM FEW040 SCT250=



000
FTUS44 KMEG 161459 AAA
TAFMEM
TAF AMD
KMEM 161459Z 1615/1712 31012G18KT P6SM SCT035
      TEMPO 1616/1619 BKN035
     FM162000 30010KT P6SM OVC035
     FM170000 30006KT P6SM BKN035
     FM170200 31005KT P6SM FEW040 SCT250=



000
FTUS44 KMEG 161350 AAA
TAFMKL
TAF AMD
KMKL 161350Z 1614/1712 28012G18KT P6SM FEW025 OVC035
      TEMPO 1615/1619 OVC025
     FM161900 29010KT P6SM OVC025
     FM170000 31004KT P6SM OVC025
     FM170600 31004KT P6SM FEW035 SCT250=



    US Dept of Commerce
    National Oceanic and Atmospheric Administration
    National Weather Service
    1325 East West Highway
    Silver Spring, MD 20910
    Page Author: NWS Internet Services Team
Disclaimer
Information Quality
Credits
Glossary
Privacy Policy
Freedom of Information Act (FOIA)
About Us
Career Opportunities